sensor_id;sensor_type;location;lat;lon;timestamp;P1;durP1;ratioP1;P2;durP2;ratioP2
75696;SDS011;64312;44.738;20.612;2022-11-30T00:00:28;8.60;;;4.25;;
75696;SDS011;64312;44.738;20.612;2022-11-30T00:02:54;6.30;;;3.67;;
75696;SDS011;64312;44.738;20.612;2022-11-30T00:05:21;7.13;;;3.33;;
75696;SDS011;64312;44.738;20.612;2022-11-30T00:07:47;5.95;;;3.83;;
75696;SDS011;64312;44.738;20.612;2022-11-30T00:10:13;5.97;;;3.50;;
75696;SDS011;64312;44.738;20.612;2022-11-30T00:12:39;5.45;;;3.08;;
75696;SDS011;64312;44.738;20.612;2022-11-30T00:15:10;4.35;;;2.88;;
75696;SDS011;64312;44.738;20.612;2022-11-30T00:17:39;4.38;;;3.10;;
75696;SDS011;64312;44.738;20.612;2022-11-30T00:20:05;5.32;;;3.40;;
75696;SDS011;64312;44.738;20.612;2022-11-30T00:22:32;6.00;;;2.85;;
75696;SDS011;64312;44.738;20.612;2022-11-30T00:24:58;4.35;;;2.88;;
75696;SDS011;64312;44.738;20.612;2022-11-30T00:27:28;7.25;;;3.65;;
75696;SDS011;64312;44.738;20.612;2022-11-30T00:29:57;5.68;;;3.40;;
75696;SDS011;64312;44.738;20.612;2022-11-30T00:32:26;4.07;;;2.83;;
75696;SDS011;64312;44.738;20.612;2022-11-30T00:34:52;5.32;;;3.33;;
75696;SDS011;64312;44.738;20.612;2022-11-30T00:37:18;4.30;;;3.15;;
75696;SDS011;64312;44.738;20.612;2022-11-30T00:39:44;5.00;;;2.47;;
75696;SDS011;64312;44.738;20.612;2022-11-30T00:42:09;3.45;;;2.30;;
75696;SDS011;64312;44.738;20.612;2022-11-30T00:44:35;3.60;;;2.00;;
75696;SDS011;64312;44.738;20.612;2022-11-30T00:47:01;4.10;;;1.85;;
75696;SDS011;64312;44.738;20.612;2022-11-30T00:49:26;4.13;;;2.28;;
75696;SDS011;64312;44.738;20.612;2022-11-30T00:51:52;3.03;;;1.83;;
75696;SDS011;64312;44.738;20.612;2022-11-30T00:54:18;3.03;;;1.90;;
75696;SDS011;64312;44.738;20.612;2022-11-30T00:56:43;4.88;;;2.63;;
75696;SDS011;64312;44.738;20.612;2022-11-30T00:59:09;3.20;;;2.00;;
75696;SDS011;64312;44.738;20.612;2022-11-30T01:01:35;2.70;;;1.80;;
75696;SDS011;64312;44.738;20.612;2022-11-30T01:04:01;4.57;;;1.88;;
75696;SDS011;64312;44.738;20.612;2022-11-30T01:06:28;3.15;;;1.63;;
75696;SDS011;64312;44.738;20.612;2022-11-30T01:08:53;2.70;;;1.70;;
75696;SDS011;64312;44.738;20.612;2022-11-30T01:11:20;2.85;;;1.88;;
75696;SDS011;64312;44.738;20.612;2022-11-30T01:13:48;4.50;;;2.25;;
75696;SDS011;64312;44.738;20.612;2022-11-30T01:16:15;5.75;;;2.15;;
75696;SDS011;64312;44.738;20.612;2022-11-30T01:18:42;4.13;;;1.95;;
75696;SDS011;64312;44.738;20.612;2022-11-30T01:21:09;2.90;;;2.00;;
75696;SDS011;64312;44.738;20.612;2022-11-30T01:23:36;2.67;;;1.73;;
75696;SDS011;64312;44.738;20.612;2022-11-30T01:26:01;3.10;;;1.67;;
75696;SDS011;64312;44.738;20.612;2022-11-30T01:28:27;2.53;;;1.65;;
75696;SDS011;64312;44.738;20.612;2022-11-30T01:30:57;2.30;;;1.55;;
75696;SDS011;64312;44.738;20.612;2022-11-30T01:35:57;2.60;;;1.63;;
75696;SDS011;64312;44.738;20.612;2022-11-30T01:38:34;2.95;;;1.58;;
75696;SDS011;64312;44.738;20.612;2022-11-30T01:41:02;1.30;;;1.10;;
75696;SDS011;64312;44.738;20.612;2022-11-30T01:51:43;1.10;;;0.73;;
75696;SDS011;64312;44.738;20.612;2022-11-30T01:54:14;1.98;;;1.05;;
75696;SDS011;64312;44.738;20.612;2022-11-30T01:56:44;2.03;;;0.90;;
75696;SDS011;64312;44.738;20.612;2022-11-30T01:59:14;2.83;;;1.02;;
75696;SDS011;64312;44.738;20.612;2022-11-30T02:01:41;1.48;;;0.57;;
75696;SDS011;64312;44.738;20.612;2022-11-30T02:04:26;1.42;;;0.98;;
75696;SDS011;64312;44.738;20.612;2022-11-30T02:06:54;1.08;;;0.93;;
75696;SDS011;64312;44.738;20.612;2022-11-30T02:09:21;1.70;;;0.73;;
75696;SDS011;64312;44.738;20.612;2022-11-30T02:11:47;0.73;;;0.68;;
75696;SDS011;64312;44.738;20.612;2022-11-30T02:30:11;1.30;;;0.63;;
75696;SDS011;64312;44.738;20.612;2022-11-30T02:32:40;1.73;;;0.68;;
75696;SDS011;64312;44.738;20.612;2022-11-30T02:35:12;1.40;;;0.80;;
75696;SDS011;64312;44.738;20.612;2022-11-30T02:37:42;1.65;;;0.82;;
75696;SDS011;64312;44.738;20.612;2022-11-30T02:40:09;2.85;;;1.00;;
75696;SDS011;64312;44.738;20.612;2022-11-30T02:42:37;1.13;;;0.73;;
75696;SDS011;64312;44.738;20.612;2022-11-30T02:45:03;1.15;;;0.68;;
75696;SDS011;64312;44.738;20.612;2022-11-30T02:47:51;1.90;;;0.80;;
75696;SDS011;64312;44.738;20.612;2022-11-30T02:50:27;1.38;;;0.73;;
75696;SDS011;64312;44.738;20.612;2022-11-30T02:52:57;0.98;;;0.60;;
75696;SDS011;64312;44.738;20.612;2022-11-30T02:55:24;1.33;;;0.70;;
75696;SDS011;64312;44.738;20.612;2022-11-30T02:57:49;2.42;;;0.75;;
75696;SDS011;64312;44.738;20.612;2022-11-30T03:00:15;0.75;;;0.70;;
75696;SDS011;64312;44.738;20.612;2022-11-30T03:02:41;1.10;;;0.60;;
75696;SDS011;64312;44.738;20.612;2022-11-30T03:05:07;1.15;;;0.60;;
75696;SDS011;64312;44.738;20.612;2022-11-30T03:07:33;0.75;;;0.60;;
75696;SDS011;64312;44.738;20.612;2022-11-30T03:09:59;0.50;;;0.50;;
75696;SDS011;64312;44.738;20.612;2022-11-30T03:12:24;1.08;;;0.70;;
75696;SDS011;64312;44.738;20.612;2022-11-30T03:14:50;1.20;;;0.60;;
75696;SDS011;64312;44.738;20.612;2022-11-30T03:17:16;1.90;;;0.80;;
75696;SDS011;64312;44.738;20.612;2022-11-30T03:19:43;0.50;;;0.50;;
75696;SDS011;64312;44.738;20.612;2022-11-30T03:22:09;1.73;;;0.90;;
75696;SDS011;64312;44.738;20.612;2022-11-30T03:24:35;1.10;;;0.63;;
75696;SDS011;64312;44.738;20.612;2022-11-30T03:27:00;0.82;;;0.63;;
75696;SDS011;64312;44.738;20.612;2022-11-30T03:29:27;2.72;;;0.80;;
75696;SDS011;64312;44.738;20.612;2022-11-30T03:31:53;2.33;;;0.90;;
75696;SDS011;64312;44.738;20.612;2022-11-30T03:34:18;1.63;;;0.80;;
75696;SDS011;64312;44.738;20.612;2022-11-30T03:36:45;2.17;;;0.90;;
75696;SDS011;64312;44.738;20.612;2022-11-30T03:39:10;2.25;;;1.00;;
75696;SDS011;64312;44.738;20.612;2022-11-30T03:41:36;2.33;;;1.00;;
75696;SDS011;64312;44.738;20.612;2022-11-30T03:44:01;1.50;;;0.60;;
75696;SDS011;64312;44.738;20.612;2022-11-30T03:46:27;0.63;;;0.55;;
75696;SDS011;64312;44.738;20.612;2022-11-30T03:48:53;1.35;;;0.73;;
75696;SDS011;64312;44.738;20.612;2022-11-30T03:51:18;1.90;;;0.63;;
75696;SDS011;64312;44.738;20.612;2022-11-30T03:53:44;1.10;;;0.50;;
75696;SDS011;64312;44.738;20.612;2022-11-30T03:56:10;0.70;;;0.63;;
75696;SDS011;64312;44.738;20.612;2022-11-30T03:58:36;1.58;;;0.63;;
75696;SDS011;64312;44.738;20.612;2022-11-30T04:01:04;1.05;;;0.90;;
75696;SDS011;64312;44.738;20.612;2022-11-30T04:03:33;0.50;;;0.50;;
75696;SDS011;64312;44.738;20.612;2022-11-30T04:05:59;2.38;;;0.80;;
75696;SDS011;64312;44.738;20.612;2022-11-30T04:08:25;1.00;;;0.52;;
75696;SDS011;64312;44.738;20.612;2022-11-30T04:10:55;1.85;;;0.80;;
75696;SDS011;64312;44.738;20.612;2022-11-30T04:13:23;1.10;;;0.50;;
75696;SDS011;64312;44.738;20.612;2022-11-30T04:15:49;1.58;;;0.73;;
75696;SDS011;64312;44.738;20.612;2022-11-30T04:18:18;1.90;;;0.60;;
75696;SDS011;64312;44.738;20.612;2022-11-30T04:20:44;0.93;;;0.55;;
75696;SDS011;64312;44.738;20.612;2022-11-30T04:23:11;1.23;;;0.73;;
75696;SDS011;64312;44.738;20.612;2022-11-30T04:25:37;4.78;;;1.60;;
75696;SDS011;64312;44.738;20.612;2022-11-30T04:28:04;2.55;;;1.30;;
75696;SDS011;64312;44.738;20.612;2022-11-30T04:30:30;1.77;;;1.10;;
75696;SDS011;64312;44.738;20.612;2022-11-30T04:32:57;1.73;;;0.80;;
75696;SDS011;64312;44.738;20.612;2022-11-30T04:35:22;0.65;;;0.50;;
75696;SDS011;64312;44.738;20.612;2022-11-30T04:37:48;2.75;;;1.20;;
75696;SDS011;64312;44.738;20.612;2022-11-30T04:40:14;1.60;;;0.82;;
75696;SDS011;64312;44.738;20.612;2022-11-30T04:42:39;1.35;;;1.08;;
75696;SDS011;64312;44.738;20.612;2022-11-30T04:45:06;1.83;;;1.05;;
75696;SDS011;64312;44.738;20.612;2022-11-30T04:47:32;2.38;;;0.95;;
75696;SDS011;64312;44.738;20.612;2022-11-30T04:49:58;2.05;;;0.70;;
75696;SDS011;64312;44.738;20.612;2022-11-30T04:52:23;0.57;;;0.40;;
75696;SDS011;64312;44.738;20.612;2022-11-30T04:54:50;0.50;;;0.43;;
75696;SDS011;64312;44.738;20.612;2022-11-30T04:57:16;0.38;;;0.38;;
75696;SDS011;64312;44.738;20.612;2022-11-30T04:59:42;3.05;;;1.52;;
75696;SDS011;64312;44.738;20.612;2022-11-30T05:02:07;3.70;;;1.20;;
75696;SDS011;64312;44.738;20.612;2022-11-30T05:04:33;1.85;;;1.08;;
75696;SDS011;64312;44.738;20.612;2022-11-30T05:06:59;1.27;;;0.90;;
75696;SDS011;64312;44.738;20.612;2022-11-30T05:09:25;0.85;;;0.60;;
75696;SDS011;64312;44.738;20.612;2022-11-30T05:11:50;1.30;;;0.52;;
75696;SDS011;64312;44.738;20.612;2022-11-30T05:14:16;1.80;;;0.70;;
75696;SDS011;64312;44.738;20.612;2022-11-30T05:16:41;0.40;;;0.40;;
75696;SDS011;64312;44.738;20.612;2022-11-30T05:19:07;0.40;;;0.40;;
75696;SDS011;64312;44.738;20.612;2022-11-30T05:21:33;0.93;;;0.60;;
75696;SDS011;64312;44.738;20.612;2022-11-30T05:23:59;1.00;;;0.98;;
75696;SDS011;64312;44.738;20.612;2022-11-30T05:26:24;0.88;;;0.55;;
75696;SDS011;64312;44.738;20.612;2022-11-30T05:28:50;1.23;;;0.50;;
75696;SDS011;64312;44.738;20.612;2022-11-30T05:31:15;1.98;;;0.95;;
75696;SDS011;64312;44.738;20.612;2022-11-30T05:33:41;0.98;;;0.80;;
75696;SDS011;64312;44.738;20.612;2022-11-30T05:36:07;0.93;;;0.93;;
75696;SDS011;64312;44.738;20.612;2022-11-30T05:38:33;1.42;;;0.90;;
75696;SDS011;64312;44.738;20.612;2022-11-30T05:41:01;1.65;;;0.82;;
75696;SDS011;64312;44.738;20.612;2022-11-30T05:43:28;1.50;;;0.77;;
75696;SDS011;64312;44.738;20.612;2022-11-30T05:46:00;2.22;;;0.98;;
75696;SDS011;64312;44.738;20.612;2022-11-30T05:48:27;0.95;;;0.80;;
75696;SDS011;64312;44.738;20.612;2022-11-30T05:50:52;2.78;;;1.48;;
75696;SDS011;64312;44.738;20.612;2022-11-30T05:53:18;7.07;;;3.42;;
75696;SDS011;64312;44.738;20.612;2022-11-30T05:55:44;6.78;;;2.50;;
75696;SDS011;64312;44.738;20.612;2022-11-30T05:58:10;2.30;;;1.73;;
75696;SDS011;64312;44.738;20.612;2022-11-30T06:00:35;2.67;;;1.42;;
75696;SDS011;64312;44.738;20.612;2022-11-30T06:03:01;2.25;;;1.10;;
75696;SDS011;64312;44.738;20.612;2022-11-30T06:05:27;0.77;;;0.60;;
75696;SDS011;64312;44.738;20.612;2022-11-30T06:07:53;0.90;;;0.73;;
75696;SDS011;64312;44.738;20.612;2022-11-30T06:10:19;1.63;;;0.73;;
75696;SDS011;64312;44.738;20.612;2022-11-30T06:12:45;1.10;;;0.80;;
75696;SDS011;64312;44.738;20.612;2022-11-30T06:15:12;1.30;;;0.82;;
75696;SDS011;64312;44.738;20.612;2022-11-30T06:17:38;1.20;;;0.90;;
75696;SDS011;64312;44.738;20.612;2022-11-30T06:20:04;0.50;;;0.43;;
75696;SDS011;64312;44.738;20.612;2022-11-30T06:22:31;1.35;;;0.40;;
75696;SDS011;64312;44.738;20.612;2022-11-30T06:24:57;1.08;;;0.55;;
75696;SDS011;64312;44.738;20.612;2022-11-30T06:27:22;0.60;;;0.40;;
75696;SDS011;64312;44.738;20.612;2022-11-30T06:29:48;0.57;;;0.35;;
75696;SDS011;64312;44.738;20.612;2022-11-30T06:32:14;0.85;;;0.50;;
75696;SDS011;64312;44.738;20.612;2022-11-30T06:34:39;0.75;;;0.55;;
75696;SDS011;64312;44.738;20.612;2022-11-30T06:37:05;1.08;;;0.60;;
75696;SDS011;64312;44.738;20.612;2022-11-30T06:39:31;1.05;;;0.60;;
75696;SDS011;64312;44.738;20.612;2022-11-30T06:41:56;1.30;;;0.52;;
75696;SDS011;64312;44.738;20.612;2022-11-30T06:44:22;1.60;;;0.80;;
75696;SDS011;64312;44.738;20.612;2022-11-30T06:46:48;1.52;;;0.60;;
75696;SDS011;64312;44.738;20.612;2022-11-30T06:49:13;0.75;;;0.50;;
75696;SDS011;64312;44.738;20.612;2022-11-30T06:51:39;1.23;;;0.50;;
75696;SDS011;64312;44.738;20.612;2022-11-30T06:54:05;1.05;;;0.95;;
75696;SDS011;64312;44.738;20.612;2022-11-30T06:56:31;2.60;;;0.80;;
75696;SDS011;64312;44.738;20.612;2022-11-30T06:58:57;0.50;;;0.50;;
75696;SDS011;64312;44.738;20.612;2022-11-30T07:01:23;1.25;;;0.73;;
75696;SDS011;64312;44.738;20.612;2022-11-30T07:03:48;1.17;;;0.60;;
75696;SDS011;64312;44.738;20.612;2022-11-30T07:06:14;1.27;;;0.55;;
75696;SDS011;64312;44.738;20.612;2022-11-30T07:08:40;0.30;;;0.30;;
75696;SDS011;64312;44.738;20.612;2022-11-30T07:11:07;0.80;;;0.80;;
75696;SDS011;64312;44.738;20.612;2022-11-30T07:13:34;0.90;;;0.60;;
75696;SDS011;64312;44.738;20.612;2022-11-30T07:16:04;0.82;;;0.50;;
75696;SDS011;64312;44.738;20.612;2022-11-30T07:18:32;0.82;;;0.52;;
75696;SDS011;64312;44.738;20.612;2022-11-30T07:20:58;0.70;;;0.50;;
75696;SDS011;64312;44.738;20.612;2022-11-30T07:23:25;1.10;;;0.73;;
75696;SDS011;64312;44.738;20.612;2022-11-30T07:26:10;1.88;;;1.00;;
75696;SDS011;64312;44.738;20.612;2022-11-30T07:28:37;1.05;;;0.50;;
75696;SDS011;64312;44.738;20.612;2022-11-30T07:31:17;1.13;;;0.50;;
75696;SDS011;64312;44.738;20.612;2022-11-30T07:33:46;1.67;;;0.75;;
75696;SDS011;64312;44.738;20.612;2022-11-30T07:36:12;3.92;;;2.03;;
75696;SDS011;64312;44.738;20.612;2022-11-30T07:38:39;2.55;;;1.75;;
75696;SDS011;64312;44.738;20.612;2022-11-30T07:41:05;1.40;;;1.30;;
75696;SDS011;64312;44.738;20.612;2022-11-30T07:43:31;1.50;;;0.90;;
75696;SDS011;64312;44.738;20.612;2022-11-30T07:45:57;2.72;;;1.95;;
75696;SDS011;64312;44.738;20.612;2022-11-30T07:48:23;2.03;;;1.25;;
75696;SDS011;64312;44.738;20.612;2022-11-30T07:50:49;1.83;;;1.02;;
75696;SDS011;64312;44.738;20.612;2022-11-30T07:53:15;1.85;;;0.80;;
75696;SDS011;64312;44.738;20.612;2022-11-30T07:55:41;1.38;;;0.90;;
75696;SDS011;64312;44.738;20.612;2022-11-30T07:58:08;1.27;;;0.63;;
75696;SDS011;64312;44.738;20.612;2022-11-30T08:00:36;1.67;;;0.98;;
75696;SDS011;64312;44.738;20.612;2022-11-30T08:03:03;2.15;;;0.77;;
75696;SDS011;64312;44.738;20.612;2022-11-30T08:05:28;1.33;;;0.70;;
75696;SDS011;64312;44.738;20.612;2022-11-30T08:07:54;1.45;;;0.80;;
75696;SDS011;64312;44.738;20.612;2022-11-30T08:10:20;1.40;;;0.80;;
75696;SDS011;64312;44.738;20.612;2022-11-30T08:12:47;1.23;;;1.00;;
75696;SDS011;64312;44.738;20.612;2022-11-30T08:15:13;2.00;;;0.95;;
75696;SDS011;64312;44.738;20.612;2022-11-30T08:17:40;2.45;;;1.30;;
75696;SDS011;64312;44.738;20.612;2022-11-30T08:20:06;1.33;;;1.15;;
75696;SDS011;64312;44.738;20.612;2022-11-30T08:22:32;1.40;;;1.13;;
75696;SDS011;64312;44.738;20.612;2022-11-30T08:24:58;2.25;;;1.52;;
75696;SDS011;64312;44.738;20.612;2022-11-30T08:27:24;1.50;;;1.00;;
75696;SDS011;64312;44.738;20.612;2022-11-30T08:29:50;3.58;;;1.30;;
75696;SDS011;64312;44.738;20.612;2022-11-30T08:32:16;3.00;;;1.55;;
75696;SDS011;64312;44.738;20.612;2022-11-30T08:34:42;3.88;;;1.60;;
75696;SDS011;64312;44.738;20.612;2022-11-30T08:37:08;4.28;;;1.50;;
75696;SDS011;64312;44.738;20.612;2022-11-30T08:39:33;7.38;;;3.45;;
75696;SDS011;64312;44.738;20.612;2022-11-30T08:41:59;6.70;;;3.00;;
75696;SDS011;64312;44.738;20.612;2022-11-30T08:44:26;8.45;;;3.90;;
75696;SDS011;64312;44.738;20.612;2022-11-30T08:46:53;9.18;;;3.17;;
75696;SDS011;64312;44.738;20.612;2022-11-30T08:49:19;11.82;;;4.75;;
75696;SDS011;64312;44.738;20.612;2022-11-30T08:51:46;9.38;;;3.88;;
75696;SDS011;64312;44.738;20.612;2022-11-30T08:54:13;9.82;;;3.83;;
75696;SDS011;64312;44.738;20.612;2022-11-30T08:56:38;6.15;;;2.88;;
75696;SDS011;64312;44.738;20.612;2022-11-30T08:59:04;6.45;;;2.33;;
75696;SDS011;64312;44.738;20.612;2022-11-30T09:01:30;3.92;;;1.75;;
75696;SDS011;64312;44.738;20.612;2022-11-30T09:03:56;4.55;;;1.90;;
75696;SDS011;64312;44.738;20.612;2022-11-30T09:06:22;3.97;;;2.42;;
75696;SDS011;64312;44.738;20.612;2022-11-30T09:08:49;3.90;;;2.42;;
75696;SDS011;64312;44.738;20.612;2022-11-30T09:11:20;3.60;;;1.42;;
75696;SDS011;64312;44.738;20.612;2022-11-30T09:13:47;2.47;;;1.30;;
75696;SDS011;64312;44.738;20.612;2022-11-30T09:16:15;3.25;;;1.10;;
75696;SDS011;64312;44.738;20.612;2022-11-30T09:18:42;3.00;;;1.42;;
75696;SDS011;64312;44.738;20.612;2022-11-30T09:21:09;3.55;;;1.70;;
75696;SDS011;64312;44.738;20.612;2022-11-30T09:23:37;5.10;;;1.65;;
75696;SDS011;64312;44.738;20.612;2022-11-30T09:26:09;3.80;;;1.60;;
75696;SDS011;64312;44.738;20.612;2022-11-30T09:28:36;2.67;;;1.30;;
75696;SDS011;64312;44.738;20.612;2022-11-30T09:31:04;1.98;;;1.13;;
75696;SDS011;64312;44.738;20.612;2022-11-30T09:33:41;2.05;;;1.15;;
75696;SDS011;64312;44.738;20.612;2022-11-30T09:36:08;2.25;;;1.20;;
75696;SDS011;64312;44.738;20.612;2022-11-30T09:38:35;1.30;;;0.98;;
75696;SDS011;64312;44.738;20.612;2022-11-30T09:47:03;1.65;;;0.98;;
75696;SDS011;64312;44.738;20.612;2022-11-30T09:49:34;1.92;;;1.08;;
75696;SDS011;64312;44.738;20.612;2022-11-30T09:52:06;2.70;;;1.60;;
75696;SDS011;64312;44.738;20.612;2022-11-30T09:54:37;2.70;;;1.52;;
75696;SDS011;64312;44.738;20.612;2022-11-30T09:59:55;6.03;;;2.42;;
75696;SDS011;64312;44.738;20.612;2022-11-30T10:02:30;3.17;;;1.77;;
75696;SDS011;64312;44.738;20.612;2022-11-30T10:04:58;1.90;;;1.38;;
75696;SDS011;64312;44.738;20.612;2022-11-30T10:10:08;2.00;;;1.00;;
75696;SDS011;64312;44.738;20.612;2022-11-30T10:15:33;1.70;;;1.00;;
75696;SDS011;64312;44.738;20.612;2022-11-30T10:20:58;2.15;;;1.30;;
75696;SDS011;64312;44.738;20.612;2022-11-30T10:24:00;2.83;;;1.73;;
75696;SDS011;64312;44.738;20.612;2022-11-30T10:31:58;3.80;;;2.10;;
75696;SDS011;64312;44.738;20.612;2022-11-30T10:34:27;3.10;;;1.85;;
75696;SDS011;64312;44.738;20.612;2022-11-30T10:44:58;2.90;;;1.27;;
75696;SDS011;64312;44.738;20.612;2022-11-30T10:47:29;2.30;;;1.55;;
75696;SDS011;64312;44.738;20.612;2022-11-30T10:50:01;3.88;;;2.10;;
75696;SDS011;64312;44.738;20.612;2022-11-30T10:52:32;4.90;;;1.92;;
75696;SDS011;64312;44.738;20.612;2022-11-30T10:55:11;5.32;;;2.45;;
75696;SDS011;64312;44.738;20.612;2022-11-30T10:57:42;3.40;;;2.03;;
75696;SDS011;64312;44.738;20.612;2022-11-30T11:00:13;2.63;;;1.38;;
75696;SDS011;64312;44.738;20.612;2022-11-30T11:08:23;8.52;;;3.55;;
75696;SDS011;64312;44.738;20.612;2022-11-30T11:10:50;6.40;;;2.92;;
75696;SDS011;64312;44.738;20.612;2022-11-30T11:13:35;8.27;;;3.38;;
75696;SDS011;64312;44.738;20.612;2022-11-30T11:16:01;10.25;;;3.92;;
75696;SDS011;64312;44.738;20.612;2022-11-30T11:18:28;9.57;;;3.80;;
75696;SDS011;64312;44.738;20.612;2022-11-30T11:21:15;6.28;;;2.90;;
75696;SDS011;64312;44.738;20.612;2022-11-30T11:23:43;6.47;;;3.33;;
75696;SDS011;64312;44.738;20.612;2022-11-30T11:26:17;7.93;;;2.90;;
75696;SDS011;64312;44.738;20.612;2022-11-30T11:28:51;9.02;;;3.92;;
75696;SDS011;64312;44.738;20.612;2022-11-30T11:34:33;6.97;;;2.38;;
75696;SDS011;64312;44.738;20.612;2022-11-30T11:37:06;5.10;;;2.15;;
75696;SDS011;64312;44.738;20.612;2022-11-30T11:39:36;6.25;;;3.38;;
75696;SDS011;64312;44.738;20.612;2022-11-30T11:42:02;7.15;;;3.75;;
75696;SDS011;64312;44.738;20.612;2022-11-30T11:44:29;10.07;;;4.43;;
75696;SDS011;64312;44.738;20.612;2022-11-30T11:49:26;4.47;;;2.80;;
75696;SDS011;64312;44.738;20.612;2022-11-30T11:52:27;2.83;;;1.77;;
75696;SDS011;64312;44.738;20.612;2022-11-30T11:57:22;3.47;;;1.45;;
75696;SDS011;64312;44.738;20.612;2022-11-30T12:00:04;2.08;;;1.42;;
75696;SDS011;64312;44.738;20.612;2022-11-30T12:05:15;2.55;;;1.40;;
75696;SDS011;64312;44.738;20.612;2022-11-30T12:10:41;2.70;;;1.85;;
75696;SDS011;64312;44.738;20.612;2022-11-30T12:13:24;3.70;;;2.03;;
75696;SDS011;64312;44.738;20.612;2022-11-30T12:15:59;3.88;;;2.08;;
75696;SDS011;64312;44.738;20.612;2022-11-30T12:27:09;5.45;;;2.92;;
75696;SDS011;64312;44.738;20.612;2022-11-30T12:35:44;5.13;;;2.47;;
75696;SDS011;64312;44.738;20.612;2022-11-30T12:38:22;4.82;;;2.90;;
75696;SDS011;64312;44.738;20.612;2022-11-30T12:40:55;5.47;;;2.90;;
75696;SDS011;64312;44.738;20.612;2022-11-30T12:44:14;3.83;;;1.92;;
75696;SDS011;64312;44.738;20.612;2022-11-30T12:46:33;3.95;;;1.90;;
75696;SDS011;64312;44.738;20.612;2022-11-30T12:52:02;4.78;;;2.70;;
75696;SDS011;64312;44.738;20.612;2022-11-30T12:57:34;5.47;;;3.08;;
75696;SDS011;64312;44.738;20.612;2022-11-30T13:06:00;3.38;;;1.98;;
75696;SDS011;64312;44.738;20.612;2022-11-30T13:08:30;3.95;;;2.58;;
75696;SDS011;64312;44.738;20.612;2022-11-30T13:10:59;3.63;;;2.67;;
75696;SDS011;64312;44.738;20.612;2022-11-30T13:13:31;6.40;;;3.50;;
75696;SDS011;64312;44.738;20.612;2022-11-30T13:16:00;5.05;;;3.38;;
75696;SDS011;64312;44.738;20.612;2022-11-30T13:18:30;5.22;;;2.72;;
75696;SDS011;64312;44.738;20.612;2022-11-30T13:26:53;3.95;;;2.88;;
75696;SDS011;64312;44.738;20.612;2022-11-30T13:32:17;4.40;;;2.75;;
75696;SDS011;64312;44.738;20.612;2022-11-30T13:34:43;5.95;;;2.92;;
75696;SDS011;64312;44.738;20.612;2022-11-30T13:37:16;3.83;;;3.13;;
75696;SDS011;64312;44.738;20.612;2022-11-30T13:39:45;3.78;;;2.95;;
75696;SDS011;64312;44.738;20.612;2022-11-30T13:44:52;4.55;;;2.40;;
75696;SDS011;64312;44.738;20.612;2022-11-30T13:47:30;3.60;;;2.20;;
75696;SDS011;64312;44.738;20.612;2022-11-30T13:58:04;4.57;;;2.60;;
75696;SDS011;64312;44.738;20.612;2022-11-30T14:05:48;5.70;;;3.22;;
75696;SDS011;64312;44.738;20.612;2022-11-30T14:10:48;4.15;;;2.70;;
75696;SDS011;64312;44.738;20.612;2022-11-30T14:18:19;3.78;;;2.35;;
75696;SDS011;64312;44.738;20.612;2022-11-30T14:23:18;4.72;;;2.50;;
75696;SDS011;64312;44.738;20.612;2022-11-30T14:25:47;3.70;;;2.67;;
75696;SDS011;64312;44.738;20.612;2022-11-30T14:28:28;2.97;;;2.25;;
75696;SDS011;64312;44.738;20.612;2022-11-30T14:31:07;4.47;;;3.00;;
75696;SDS011;64312;44.738;20.612;2022-11-30T14:33:57;4.22;;;2.60;;
75696;SDS011;64312;44.738;20.612;2022-11-30T14:36:34;6.85;;;3.47;;
75696;SDS011;64312;44.738;20.612;2022-11-30T14:39:20;4.68;;;2.83;;
75696;SDS011;64312;44.738;20.612;2022-11-30T14:41:48;4.28;;;2.35;;
75696;SDS011;64312;44.738;20.612;2022-11-30T14:44:13;4.47;;;2.55;;
75696;SDS011;64312;44.738;20.612;2022-11-30T14:46:39;5.30;;;3.72;;
75696;SDS011;64312;44.738;20.612;2022-11-30T14:49:18;4.53;;;2.50;;
75696;SDS011;64312;44.738;20.612;2022-11-30T14:51:53;4.28;;;2.40;;
75696;SDS011;64312;44.738;20.612;2022-11-30T14:54:32;3.33;;;2.45;;
75696;SDS011;64312;44.738;20.612;2022-11-30T14:59:55;3.58;;;2.30;;
75696;SDS011;64312;44.738;20.612;2022-11-30T15:02:34;3.28;;;1.80;;
75696;SDS011;64312;44.738;20.612;2022-11-30T15:05:06;3.42;;;2.33;;
75696;SDS011;64312;44.738;20.612;2022-11-30T15:07:39;2.95;;;1.88;;
75696;SDS011;64312;44.738;20.612;2022-11-30T15:10:17;4.47;;;2.63;;
75696;SDS011;64312;44.738;20.612;2022-11-30T15:12:51;4.50;;;2.78;;
75696;SDS011;64312;44.738;20.612;2022-11-30T15:20:28;5.45;;;3.28;;
75696;SDS011;64312;44.738;20.612;2022-11-30T15:23:01;6.32;;;4.30;;
75696;SDS011;64312;44.738;20.612;2022-11-30T15:25:29;5.68;;;3.80;;
75696;SDS011;64312;44.738;20.612;2022-11-30T15:27:59;5.30;;;3.15;;
75696;SDS011;64312;44.738;20.612;2022-11-30T15:30:25;6.03;;;3.65;;
75696;SDS011;64312;44.738;20.612;2022-11-30T15:32:52;7.57;;;4.13;;
75696;SDS011;64312;44.738;20.612;2022-11-30T15:35:21;4.75;;;3.08;;
75696;SDS011;64312;44.738;20.612;2022-11-30T15:37:49;6.43;;;3.83;;
75696;SDS011;64312;44.738;20.612;2022-11-30T15:40:20;6.60;;;3.95;;
75696;SDS011;64312;44.738;20.612;2022-11-30T15:42:53;6.80;;;3.58;;
75696;SDS011;64312;44.738;20.612;2022-11-30T15:45:23;3.65;;;2.53;;
75696;SDS011;64312;44.738;20.612;2022-11-30T15:47:51;4.03;;;2.33;;
75696;SDS011;64312;44.738;20.612;2022-11-30T15:58:40;5.53;;;2.88;;
75696;SDS011;64312;44.738;20.612;2022-11-30T16:06:26;5.65;;;2.92;;
75696;SDS011;64312;44.738;20.612;2022-11-30T16:08:54;6.43;;;3.70;;
75696;SDS011;64312;44.738;20.612;2022-11-30T16:11:22;5.45;;;3.50;;
75696;SDS011;64312;44.738;20.612;2022-11-30T16:13:48;6.30;;;2.78;;
75696;SDS011;64312;44.738;20.612;2022-11-30T16:16:17;5.55;;;3.10;;
75696;SDS011;64312;44.738;20.612;2022-11-30T16:18:45;4.05;;;2.60;;
75696;SDS011;64312;44.738;20.612;2022-11-30T16:21:12;3.67;;;2.10;;
75696;SDS011;64312;44.738;20.612;2022-11-30T16:23:41;2.70;;;1.58;;
75696;SDS011;64312;44.738;20.612;2022-11-30T16:26:10;3.00;;;1.60;;
75696;SDS011;64312;44.738;20.612;2022-11-30T16:28:37;3.50;;;1.95;;
75696;SDS011;64312;44.738;20.612;2022-11-30T16:31:03;5.13;;;2.58;;
75696;SDS011;64312;44.738;20.612;2022-11-30T16:33:29;4.20;;;2.17;;
75696;SDS011;64312;44.738;20.612;2022-11-30T16:38:33;4.85;;;2.25;;
75696;SDS011;64312;44.738;20.612;2022-11-30T16:41:09;4.03;;;2.38;;
75696;SDS011;64312;44.738;20.612;2022-11-30T16:43:47;3.15;;;2.30;;
75696;SDS011;64312;44.738;20.612;2022-11-30T16:46:15;4.43;;;2.58;;
75696;SDS011;64312;44.738;20.612;2022-11-30T16:48:42;5.88;;;2.70;;
75696;SDS011;64312;44.738;20.612;2022-11-30T16:51:13;4.45;;;2.17;;
75696;SDS011;64312;44.738;20.612;2022-11-30T16:53:39;2.33;;;1.52;;
75696;SDS011;64312;44.738;20.612;2022-11-30T16:56:07;4.22;;;2.38;;
75696;SDS011;64312;44.738;20.612;2022-11-30T16:58:34;5.22;;;2.92;;
75696;SDS011;64312;44.738;20.612;2022-11-30T17:01:00;5.07;;;2.22;;
75696;SDS011;64312;44.738;20.612;2022-11-30T17:03:27;3.97;;;2.40;;
75696;SDS011;64312;44.738;20.612;2022-11-30T17:05:55;4.10;;;2.25;;
75696;SDS011;64312;44.738;20.612;2022-11-30T17:08:21;3.88;;;2.47;;
75696;SDS011;64312;44.738;20.612;2022-11-30T17:10:49;3.92;;;2.55;;
75696;SDS011;64312;44.738;20.612;2022-11-30T17:13:16;3.63;;;2.05;;
75696;SDS011;64312;44.738;20.612;2022-11-30T17:15:42;5.38;;;2.72;;
75696;SDS011;64312;44.738;20.612;2022-11-30T17:18:08;5.47;;;2.53;;
75696;SDS011;64312;44.738;20.612;2022-11-30T17:20:34;3.08;;;2.30;;
75696;SDS011;64312;44.738;20.612;2022-11-30T17:23:01;6.25;;;2.38;;